Zadar, Croatia

8:03 AM CET on October 26, 2014 (GMT +0100)
Zemunik | Change Station
CLOSE
Current Station
Airport
Location: Zadar,
Elevation: 269 ft
Nearby Weather Stations

Elev 269 ft 44.10 °N, 15.36 °E | Updated 3 minutes ago

Clear
Clear
55 °F
Feels Like 55 °F
N
15
Wind Variable Wind from NE

Today
High -- | Low -- °F
--% Chance of Precip.
Yesterday
High -- | Low -- °F
Precip. -- in
6:26 AM 4:57 PM
Waxing Crescent, 6% visible
Pressure 30.18 in
Visibility -9999.0 miles
Clouds
Dew Point 37 °F
Humidity 51%
Rainfall 0.00 in
Snow Depth Not available.
UV Not available.
Pollen Not available.
Air Quality Not available.
Flu Activity Not available.
METAR LDZD 260700Z 04013KT 340V100 CAVOK 13/03 Q1022 NOSIG

More Conditions Fewer Conditions

Pressure 30.18 in
Visibility -9999.0 miles
Clouds
Dew Point 37 °F
Humidity 51%
Rainfall 0.00 in
Snow Depth Not available.
UV Not available.
Pollen Not available.
Air Quality Not available.
Flu Activity Not available.
METAR LDZD 260700Z 04013KT 340V100 CAVOK 13/03 Q1022 NOSIG

More Conditions Fewer Conditions

10-Day Weather Forecast

Almanac

Astronomy

Oct. 26, 2014 Rise Set
Actual Time 6:26 AM CET 4:57 PM CET
Civil Twilight 5:57 AM CET 5:27 PM CET
Nautical Twilight 5:23 AM CET 6:00 PM CET
Astronomical Twilight 4:49 AM CET 6:34 PM CET
Moon 8:51 AM CET 6:50 PM CET
Length of Visible Light 11h 29m
Length of Day
10h 30m
Tomorrow will be 2m 47s shorter.
Waxing Crescent, 6% of the Moon is Illuminated
Today
Waxing Crescent
Oct 30
First Quarter
Nov 6
Full
Nov 14
Last Quarter
Nov 22
New

Yesterday's Extremes

Country Highs Country Lows

Community

WunderPhotos

Upload Photos

1,765,115 photos uploaded!

Nearby

Snow Depth

Not available.

Earthquake Activity

City Distance Mag. Time & Date
No recent earthquake activity has been reported nearby.
Minimum magnitude displayed is 2.5.

Coastal Water Temperatures

Place Temperature
No Stations Reporting

Nearby Weather Stations